sensor_id;sensor_type;location;lat;lon;timestamp;temperature;humidity
70166;SHT30;57541;47.408;18.822;2022-10-31T00:00:07;11.97;98.46
70166;SHT30;57541;47.408;18.822;2022-10-31T00:00:40;11.93;98.56
70166;SHT30;57541;47.408;18.822;2022-10-31T00:01:25;11.90;98.57
70166;SHT30;57541;47.408;18.822;2022-10-31T00:01:57;11.87;98.60
70166;SHT30;57541;47.408;18.822;2022-10-31T00:02:28;11.87;98.73
70166;SHT30;57541;47.408;18.822;2022-10-31T00:03:00;11.90;98.76
70166;SHT30;57541;47.408;18.822;2022-10-31T00:03:32;11.87;98.72
70166;SHT30;57541;47.408;18.822;2022-10-31T00:04:04;11.87;98.72
70166;SHT30;57541;47.408;18.822;2022-10-31T00:04:36;11.87;98.77
70166;SHT30;57541;47.408;18.822;2022-10-31T00:05:08;11.90;98.86
70166;SHT30;57541;47.408;18.822;2022-10-31T00:05:44;11.90;98.69
70166;SHT30;57541;47.408;18.822;2022-10-31T00:06:16;11.87;98.71
70166;SHT30;57541;47.408;18.822;2022-10-31T00:06:51;11.88;98.73
70166;SHT30;57541;47.408;18.822;2022-10-31T00:07:22;11.88;98.71
70166;SHT30;57541;47.408;18.822;2022-10-31T00:07:54;11.90;98.71
70166;SHT30;57541;47.408;18.822;2022-10-31T00:08:25;11.84;98.57
70166;SHT30;57541;47.408;18.822;2022-10-31T00:08:59;11.86;98.77
70166;SHT30;57541;47.408;18.822;2022-10-31T00:09:31;11.87;98.76
70166;SHT30;57541;47.408;18.822;2022-10-31T00:10:03;11.91;98.82
70166;SHT30;57541;47.408;18.822;2022-10-31T00:10:40;11.87;98.68
70166;SHT30;57541;47.408;18.822;2022-10-31T00:11:12;11.91;98.75
70166;SHT30;57541;47.408;18.822;2022-10-31T00:11:43;11.86;98.68
70166;SHT30;57541;47.408;18.822;2022-10-31T00:12:15;11.91;98.78
70166;SHT30;57541;47.408;18.822;2022-10-31T00:12:46;11.94;98.74
70166;SHT30;57541;47.408;18.822;2022-10-31T00:13:18;12.00;98.70
70166;SHT30;57541;47.408;18.822;2022-10-31T00:13:50;11.94;98.50
70166;SHT30;57541;47.408;18.822;2022-10-31T00:14:21;11.94;98.60
70166;SHT30;57541;47.408;18.822;2022-10-31T00:14:53;12.00;98.65
70166;SHT30;57541;47.408;18.822;2022-10-31T00:15:24;12.01;98.73
70166;SHT30;57541;47.408;18.822;2022-10-31T00:15:56;12.02;98.63
70166;SHT30;57541;47.408;18.822;2022-10-31T00:16:28;11.95;98.57
70166;SHT30;57541;47.408;18.822;2022-10-31T00:17:00;11.95;98.66
70166;SHT30;57541;47.408;18.822;2022-10-31T00:17:35;12.01;98.74
70166;SHT30;57541;47.408;18.822;2022-10-31T00:18:08;12.01;98.69
70166;SHT30;57541;47.408;18.822;2022-10-31T00:18:40;12.00;98.57
70166;SHT30;57541;47.408;18.822;2022-10-31T00:19:11;12.00;98.55
70166;SHT30;57541;47.408;18.822;2022-10-31T00:19:43;12.04;98.68
70166;SHT30;57541;47.408;18.822;2022-10-31T00:20:15;12.04;98.57
70166;SHT30;57541;47.408;18.822;2022-10-31T00:20:46;12.00;98.54
70166;SHT30;57541;47.408;18.822;2022-10-31T00:21:19;11.95;98.54
70166;SHT30;57541;47.408;18.822;2022-10-31T00:21:54;11.91;98.57
70166;SHT30;57541;47.408;18.822;2022-10-31T00:22:25;11.94;98.69
70166;SHT30;57541;47.408;18.822;2022-10-31T00:22:58;11.95;98.69
70166;SHT30;57541;47.408;18.822;2022-10-31T00:23:30;11.98;98.66
70166;SHT30;57541;47.408;18.822;2022-10-31T00:24:02;11.90;98.69
70166;SHT30;57541;47.408;18.822;2022-10-31T00:24:34;11.95;98.81
70166;SHT30;57541;47.408;18.822;2022-10-31T00:25:06;12.01;98.76
70166;SHT30;57541;47.408;18.822;2022-10-31T00:25:38;12.04;98.73
70166;SHT30;57541;47.408;18.822;2022-10-31T00:26:10;12.02;98.62
70166;SHT30;57541;47.408;18.822;2022-10-31T00:26:42;12.02;98.65
70166;SHT30;57541;47.408;18.822;2022-10-31T00:27:14;12.10;98.73
70166;SHT30;57541;47.408;18.822;2022-10-31T00:27:45;11.98;98.58
70166;SHT30;57541;47.408;18.822;2022-10-31T00:28:17;11.94;98.66
70166;SHT30;57541;47.408;18.822;2022-10-31T00:28:49;11.94;98.59
70166;SHT30;57541;47.408;18.822;2022-10-31T00:29:22;11.93;98.84
70166;SHT30;57541;47.408;18.822;2022-10-31T00:29:53;12.02;98.82
70166;SHT30;57541;47.408;18.822;2022-10-31T00:30:25;12.01;98.71
70166;SHT30;57541;47.408;18.822;2022-10-31T00:31:06;12.02;98.63
70166;SHT30;57541;47.408;18.822;2022-10-31T00:31:38;12.04;98.68
70166;SHT30;57541;47.408;18.822;2022-10-31T00:32:09;12.05;98.69
70166;SHT30;57541;47.408;18.822;2022-10-31T00:32:41;12.05;98.65
70166;SHT30;57541;47.408;18.822;2022-10-31T00:33:12;12.10;98.73
70166;SHT30;57541;47.408;18.822;2022-10-31T00:33:44;12.08;98.61
70166;SHT30;57541;47.408;18.822;2022-10-31T00:34:15;12.04;98.62
70166;SHT30;57541;47.408;18.822;2022-10-31T00:34:47;12.13;98.71
70166;SHT30;57541;47.408;18.822;2022-10-31T00:35:18;12.14;98.53
70166;SHT30;57541;47.408;18.822;2022-10-31T00:35:50;12.08;98.52
70166;SHT30;57541;47.408;18.822;2022-10-31T00:36:22;12.08;98.51
70166;SHT30;57541;47.408;18.822;2022-10-31T00:36:53;12.02;98.49
70166;SHT30;57541;47.408;18.822;2022-10-31T00:37:26;12.04;98.65
70166;SHT30;57541;47.408;18.822;2022-10-31T00:37:58;11.98;98.71
70166;SHT30;57541;47.408;18.822;2022-10-31T00:38:30;12.01;98.68
70166;SHT30;57541;47.408;18.822;2022-10-31T00:39:01;12.00;98.62
70166;SHT30;57541;47.408;18.822;2022-10-31T00:39:33;12.04;98.56
70166;SHT30;57541;47.408;18.822;2022-10-31T00:40:05;12.04;98.49
70166;SHT30;57541;47.408;18.822;2022-10-31T00:40:37;12.02;98.59
70166;SHT30;57541;47.408;18.822;2022-10-31T00:41:09;11.90;98.70
70166;SHT30;57541;47.408;18.822;2022-10-31T00:41:41;11.90;98.62
70166;SHT30;57541;47.408;18.822;2022-10-31T00:42:13;12.01;98.66
70166;SHT30;57541;47.408;18.822;2022-10-31T00:42:44;11.98;98.62
70166;SHT30;57541;47.408;18.822;2022-10-31T00:43:16;11.97;98.55
70166;SHT30;57541;47.408;18.822;2022-10-31T00:43:47;11.97;98.60
70166;SHT30;57541;47.408;18.822;2022-10-31T00:44:19;11.94;98.50
70166;SHT30;57541;47.408;18.822;2022-10-31T00:44:50;11.93;98.61
70166;SHT30;57541;47.408;18.822;2022-10-31T00:45:22;11.90;98.62
70166;SHT30;57541;47.408;18.822;2022-10-31T00:45:54;11.87;98.68
70166;SHT30;57541;47.408;18.822;2022-10-31T00:46:25;11.87;98.88
70166;SHT30;57541;47.408;18.822;2022-10-31T00:46:57;11.84;98.76
70166;SHT30;57541;47.408;18.822;2022-10-31T00:47:28;11.84;98.79
70166;SHT30;57541;47.408;18.822;2022-10-31T00:48:00;11.86;98.67
70166;SHT30;57541;47.408;18.822;2022-10-31T00:48:32;11.86;98.73
70166;SHT30;57541;47.408;18.822;2022-10-31T00:49:03;11.91;98.75
70166;SHT30;57541;47.408;18.822;2022-10-31T00:49:35;11.80;98.58
70166;SHT30;57541;47.408;18.822;2022-10-31T00:50:07;11.86;98.62
70166;SHT30;57541;47.408;18.822;2022-10-31T00:50:39;11.84;98.62
70166;SHT30;57541;47.408;18.822;2022-10-31T00:51:11;11.87;98.59
70166;SHT30;57541;47.408;18.822;2022-10-31T00:51:42;11.86;98.56
70166;SHT30;57541;47.408;18.822;2022-10-31T00:52:14;11.91;98.61
70166;SHT30;57541;47.408;18.822;2022-10-31T00:52:45;11.86;98.52
70166;SHT30;57541;47.408;18.822;2022-10-31T00:53:17;11.87;98.56
70166;SHT30;57541;47.408;18.822;2022-10-31T00:53:48;11.88;98.59
70166;SHT30;57541;47.408;18.822;2022-10-31T00:54:20;11.87;98.65
70166;SHT30;57541;47.408;18.822;2022-10-31T00:54:51;11.86;98.67
70166;SHT30;57541;47.408;18.822;2022-10-31T00:55:23;11.83;98.66
70166;SHT30;57541;47.408;18.822;2022-10-31T00:55:55;11.86;98.78
70166;SHT30;57541;47.408;18.822;2022-10-31T00:56:26;11.86;98.73
70166;SHT30;57541;47.408;18.822;2022-10-31T00:56:58;11.93;98.72
70166;SHT30;57541;47.408;18.822;2022-10-31T00:57:29;11.94;98.80
70166;SHT30;57541;47.408;18.822;2022-10-31T00:58:01;11.91;98.65
70166;SHT30;57541;47.408;18.822;2022-10-31T00:58:33;11.86;98.58
70166;SHT30;57541;47.408;18.822;2022-10-31T00:59:05;11.90;98.70
70166;SHT30;57541;47.408;18.822;2022-10-31T00:59:36;11.83;98.62
70166;SHT30;57541;47.408;18.822;2022-10-31T01:00:08;11.91;98.88
70166;SHT30;57541;47.408;18.822;2022-10-31T01:00:40;11.90;98.62
70166;SHT30;57541;47.408;18.822;2022-10-31T01:01:12;11.93;98.69
70166;SHT30;57541;47.408;18.822;2022-10-31T01:01:43;11.91;98.51
70166;SHT30;57541;47.408;18.822;2022-10-31T01:02:15;11.93;98.49
70166;SHT30;57541;47.408;18.822;2022-10-31T01:02:47;11.88;98.58
70166;SHT30;57541;47.408;18.822;2022-10-31T01:03:19;11.87;98.61
70166;SHT30;57541;47.408;18.822;2022-10-31T01:03:50;11.91;98.65
70166;SHT30;57541;47.408;18.822;2022-10-31T01:04:22;11.81;98.36
70166;SHT30;57541;47.408;18.822;2022-10-31T01:04:53;11.76;98.45
70166;SHT30;57541;47.408;18.822;2022-10-31T01:05:25;11.71;98.62
70166;SHT30;57541;47.408;18.822;2022-10-31T01:06:01;11.67;98.69
70166;SHT30;57541;47.408;18.822;2022-10-31T01:06:33;11.69;98.65
70166;SHT30;57541;47.408;18.822;2022-10-31T01:07:04;11.69;98.68
70166;SHT30;57541;47.408;18.822;2022-10-31T01:07:37;11.70;98.67
70166;SHT30;57541;47.408;18.822;2022-10-31T01:08:09;11.71;98.65
70166;SHT30;57541;47.408;18.822;2022-10-31T01:08:40;11.71;98.61
70166;SHT30;57541;47.408;18.822;2022-10-31T01:09:12;11.77;98.66
70166;SHT30;57541;47.408;18.822;2022-10-31T01:09:43;11.71;98.63
70166;SHT30;57541;47.408;18.822;2022-10-31T01:10:15;11.70;98.62
70166;SHT30;57541;47.408;18.822;2022-10-31T01:11:13;11.74;98.69
70166;SHT30;57541;47.408;18.822;2022-10-31T01:11:45;11.80;98.62
70166;SHT30;57541;47.408;18.822;2022-10-31T01:12:16;11.81;98.58
70166;SHT30;57541;47.408;18.822;2022-10-31T01:12:49;11.80;98.54
70166;SHT30;57541;47.408;18.822;2022-10-31T01:13:20;11.73;98.54
70166;SHT30;57541;47.408;18.822;2022-10-31T01:13:57;11.73;98.64
70166;SHT30;57541;47.408;18.822;2022-10-31T01:14:28;11.71;98.64
70166;SHT30;57541;47.408;18.822;2022-10-31T01:15:00;11.76;98.84
70166;SHT30;57541;47.408;18.822;2022-10-31T01:15:31;11.74;98.80
70166;SHT30;57541;47.408;18.822;2022-10-31T01:16:05;11.80;98.78
70166;SHT30;57541;47.408;18.822;2022-10-31T01:16:37;11.80;98.82
70166;SHT30;57541;47.408;18.822;2022-10-31T01:17:08;11.83;98.80
70166;SHT30;57541;47.408;18.822;2022-10-31T01:17:40;11.80;98.79
70166;SHT30;57541;47.408;18.822;2022-10-31T01:18:11;11.87;98.73
70166;SHT30;57541;47.408;18.822;2022-10-31T01:18:43;11.87;98.74
70166;SHT30;57541;47.408;18.822;2022-10-31T01:19:15;11.88;98.62
70166;SHT30;57541;47.408;18.822;2022-10-31T01:19:46;11.93;98.61
70166;SHT30;57541;47.408;18.822;2022-10-31T01:20:18;11.91;98.49
70166;SHT30;57541;47.408;18.822;2022-10-31T01:21:11;11.83;98.62
70166;SHT30;57541;47.408;18.822;2022-10-31T01:21:43;11.81;98.58
70166;SHT30;57541;47.408;18.822;2022-10-31T01:22:14;11.81;98.69
70166;SHT30;57541;47.408;18.822;2022-10-31T01:22:46;11.84;98.82
70166;SHT30;57541;47.408;18.822;2022-10-31T01:23:17;11.86;98.75
70166;SHT30;57541;47.408;18.822;2022-10-31T01:23:50;11.84;98.65
70166;SHT30;57541;47.408;18.822;2022-10-31T01:24:23;11.84;98.72
70166;SHT30;57541;47.408;18.822;2022-10-31T01:24:55;11.84;98.64
70166;SHT30;57541;47.408;18.822;2022-10-31T01:25:26;11.94;98.72
70166;SHT30;57541;47.408;18.822;2022-10-31T01:26:04;11.86;98.58
70166;SHT30;57541;47.408;18.822;2022-10-31T01:26:36;11.88;98.62
70166;SHT30;57541;47.408;18.822;2022-10-31T01:27:08;11.86;98.60
70166;SHT30;57541;47.408;18.822;2022-10-31T01:27:39;11.73;98.62
70166;SHT30;57541;47.408;18.822;2022-10-31T01:28:11;11.79;98.80
70166;SHT30;57541;47.408;18.822;2022-10-31T01:28:46;11.76;98.63
70166;SHT30;57541;47.408;18.822;2022-10-31T01:29:17;11.81;98.73
70166;SHT30;57541;47.408;18.822;2022-10-31T01:29:49;11.70;98.64
70166;SHT30;57541;47.408;18.822;2022-10-31T01:30:20;11.77;98.86
70166;SHT30;57541;47.408;18.822;2022-10-31T01:30:52;11.74;98.66
70166;SHT30;57541;47.408;18.822;2022-10-31T01:31:27;11.79;98.64
70166;SHT30;57541;47.408;18.822;2022-10-31T01:31:59;11.69;98.65
70166;SHT30;57541;47.408;18.822;2022-10-31T01:32:31;11.67;98.72
70166;SHT30;57541;47.408;18.822;2022-10-31T01:33:03;11.71;98.82
70166;SHT30;57541;47.408;18.822;2022-10-31T01:33:35;11.73;98.73
70166;SHT30;57541;47.408;18.822;2022-10-31T01:34:08;11.69;98.72
70166;SHT30;57541;47.408;18.822;2022-10-31T01:34:40;11.70;98.78
70166;SHT30;57541;47.408;18.822;2022-10-31T01:35:12;11.80;98.71
70166;SHT30;57541;47.408;18.822;2022-10-31T01:35:43;11.74;98.61
70166;SHT30;57541;47.408;18.822;2022-10-31T01:36:46;11.69;98.57
70166;SHT30;57541;47.408;18.822;2022-10-31T01:37:22;11.74;98.64
70166;SHT30;57541;47.408;18.822;2022-10-31T01:37:54;11.73;98.67
70166;SHT30;57541;47.408;18.822;2022-10-31T01:38:25;11.73;98.64
70166;SHT30;57541;47.408;18.822;2022-10-31T01:38:59;11.66;98.55
70166;SHT30;57541;47.408;18.822;2022-10-31T01:39:31;11.63;98.65
70166;SHT30;57541;47.408;18.822;2022-10-31T01:40:03;11.60;98.72
70166;SHT30;57541;47.408;18.822;2022-10-31T01:40:35;11.62;98.70
70166;SHT30;57541;47.408;18.822;2022-10-31T01:41:06;11.59;98.72
70166;SHT30;57541;47.408;18.822;2022-10-31T01:41:45;11.56;98.71
70166;SHT30;57541;47.408;18.822;2022-10-31T01:42:21;11.60;98.80
70166;SHT30;57541;47.408;18.822;2022-10-31T01:42:53;11.59;98.72
70166;SHT30;57541;47.408;18.822;2022-10-31T01:43:41;11.59;98.65
70166;SHT30;57541;47.408;18.822;2022-10-31T01:44:58;11.58;98.66
70166;SHT30;57541;47.408;18.822;2022-10-31T01:45:29;11.56;98.76
70166;SHT30;57541;47.408;18.822;2022-10-31T01:46:01;11.60;98.78
70166;SHT30;57541;47.408;18.822;2022-10-31T01:46:36;11.53;98.85
70166;SHT30;57541;47.408;18.822;2022-10-31T01:47:15;11.58;98.80
70166;SHT30;57541;47.408;18.822;2022-10-31T01:47:49;11.58;98.83
70166;SHT30;57541;47.408;18.822;2022-10-31T01:48:24;11.59;98.82
70166;SHT30;57541;47.408;18.822;2022-10-31T01:49:00;11.56;98.73
70166;SHT30;57541;47.408;18.822;2022-10-31T01:49:54;11.62;98.74
70166;SHT30;57541;47.408;18.822;2022-10-31T01:50:35;11.63;98.65
70166;SHT30;57541;47.408;18.822;2022-10-31T01:51:10;11.62;98.82
70166;SHT30;57541;47.408;18.822;2022-10-31T01:51:58;11.71;98.69
70166;SHT30;57541;47.408;18.822;2022-10-31T01:52:40;11.65;98.58
70166;SHT30;57541;47.408;18.822;2022-10-31T01:53:12;11.70;98.80
70166;SHT30;57541;47.408;18.822;2022-10-31T01:53:44;11.69;98.69
70166;SHT30;57541;47.408;18.822;2022-10-31T01:54:19;11.65;98.70
70166;SHT30;57541;47.408;18.822;2022-10-31T01:55:39;11.67;98.73
70166;SHT30;57541;47.408;18.822;2022-10-31T01:55:50;11.66;98.71
70166;SHT30;57541;47.408;18.822;2022-10-31T01:56:22;11.67;98.86
70166;SHT30;57541;47.408;18.822;2022-10-31T01:56:56;11.59;98.66
70166;SHT30;57541;47.408;18.822;2022-10-31T01:57:31;11.60;98.70
70166;SHT30;57541;47.408;18.822;2022-10-31T01:58:07;11.66;98.69
70166;SHT30;57541;47.408;18.822;2022-10-31T01:58:41;11.58;98.53
70166;SHT30;57541;47.408;18.822;2022-10-31T01:59:15;11.63;98.55
70166;SHT30;57541;47.408;18.822;2022-10-31T01:59:53;11.66;98.61
70166;SHT30;57541;47.408;18.822;2022-10-31T02:01:06;11.59;98.54
70166;SHT30;57541;47.408;18.822;2022-10-31T02:01:38;11.56;98.62
70166;SHT30;57541;47.408;18.822;2022-10-31T02:02:11;11.60;98.63
70166;SHT30;57541;47.408;18.822;2022-10-31T02:02:45;11.63;98.71
70166;SHT30;57541;47.408;18.822;2022-10-31T02:03:18;11.66;98.77
70166;SHT30;57541;47.408;18.822;2022-10-31T02:03:51;11.66;98.66
70166;SHT30;57541;47.408;18.822;2022-10-31T02:04:24;11.70;98.65
70166;SHT30;57541;47.408;18.822;2022-10-31T02:04:56;11.65;98.50
70166;SHT30;57541;47.408;18.822;2022-10-31T02:05:29;11.65;98.64
70166;SHT30;57541;47.408;18.822;2022-10-31T02:06:02;11.67;98.64
70166;SHT30;57541;47.408;18.822;2022-10-31T02:07:16;11.63;98.57
70166;SHT30;57541;47.408;18.822;2022-10-31T02:08:29;11.63;98.60
70166;SHT30;57541;47.408;18.822;2022-10-31T02:09:03;11.67;98.54
70166;SHT30;57541;47.408;18.822;2022-10-31T02:09:35;11.65;98.50
70166;SHT30;57541;47.408;18.822;2022-10-31T02:10:08;11.60;98.53
70166;SHT30;57541;47.408;18.822;2022-10-31T02:10:40;11.63;98.64
70166;SHT30;57541;47.408;18.822;2022-10-31T02:11:12;11.67;98.73
70166;SHT30;57541;47.408;18.822;2022-10-31T02:11:43;11.53;98.56
70166;SHT30;57541;47.408;18.822;2022-10-31T02:12:16;11.50;98.73
70166;SHT30;57541;47.408;18.822;2022-10-31T02:12:51;11.47;98.94
70166;SHT30;57541;47.408;18.822;2022-10-31T02:13:25;11.53;98.90
70166;SHT30;57541;47.408;18.822;2022-10-31T02:13:58;11.59;98.82
70166;SHT30;57541;47.408;18.822;2022-10-31T02:14:31;11.65;98.72
70166;SHT30;57541;47.408;18.822;2022-10-31T02:15:04;11.63;98.78
70166;SHT30;57541;47.408;18.822;2022-10-31T02:15:37;11.69;98.68
70166;SHT30;57541;47.408;18.822;2022-10-31T02:16:09;11.69;98.54
70166;SHT30;57541;47.408;18.822;2022-10-31T02:16:41;11.65;98.44
70166;SHT30;57541;47.408;18.822;2022-10-31T02:17:13;11.62;98.44
70166;SHT30;57541;47.408;18.822;2022-10-31T02:17:45;11.65;98.50
70166;SHT30;57541;47.408;18.822;2022-10-31T02:18:17;11.60;98.47
70166;SHT30;57541;47.408;18.822;2022-10-31T02:18:50;11.55;98.57
70166;SHT30;57541;47.408;18.822;2022-10-31T02:19:31;11.56;98.63
70166;SHT30;57541;47.408;18.822;2022-10-31T02:20:25;11.55;98.73
70166;SHT30;57541;47.408;18.822;2022-10-31T02:21:18;11.62;98.63
70166;SHT30;57541;47.408;18.822;2022-10-31T02:22:06;11.52;98.67
70166;SHT30;57541;47.408;18.822;2022-10-31T02:28:42;11.43;98.78
70166;SHT30;57541;47.408;18.822;2022-10-31T02:30:04;11.32;98.71
70166;SHT30;57541;47.408;18.822;2022-10-31T02:32:50;11.19;98.90
70166;SHT30;57541;47.408;18.822;2022-10-31T02:33:48;11.32;98.81
70166;SHT30;57541;47.408;18.822;2022-10-31T02:35:49;11.22;98.98
70166;SHT30;57541;47.408;18.822;2022-10-31T02:42:05;11.19;99.27
70166;SHT30;57541;47.408;18.822;2022-10-31T02:42:57;11.09;98.99
70166;SHT30;57541;47.408;18.822;2022-10-31T02:43:59;11.14;99.03
70166;SHT30;57541;47.408;18.822;2022-10-31T02:45:32;11.09;99.06
70166;SHT30;57541;47.408;18.822;2022-10-31T02:46:13;11.15;99.00
70166;SHT30;57541;47.408;18.822;2022-10-31T02:46:54;11.21;98.93
70166;SHT30;57541;47.408;18.822;2022-10-31T02:47:29;11.12;98.86
70166;SHT30;57541;47.408;18.822;2022-10-31T02:48:10;10.97;99.05
70166;SHT30;57541;47.408;18.822;2022-10-31T02:48:45;11.04;99.12
70166;SHT30;57541;47.408;18.822;2022-10-31T02:49:32;11.09;99.17
70166;SHT30;57541;47.408;18.822;2022-10-31T02:50:41;11.04;98.93
70166;SHT30;57541;47.408;18.822;2022-10-31T02:51:15;11.11;99.03
70166;SHT30;57541;47.408;18.822;2022-10-31T02:51:47;11.16;99.08
70166;SHT30;57541;47.408;18.822;2022-10-31T02:52:28;11.09;99.00
70166;SHT30;57541;47.408;18.822;2022-10-31T02:53:00;11.04;98.96
70166;SHT30;57541;47.408;18.822;2022-10-31T02:53:33;11.04;99.03
70166;SHT30;57541;47.408;18.822;2022-10-31T02:54:25;11.14;99.03
70166;SHT30;57541;47.408;18.822;2022-10-31T02:54:58;11.18;98.95
70166;SHT30;57541;47.408;18.822;2022-10-31T02:56:05;11.18;98.80
70166;SHT30;57541;47.408;18.822;2022-10-31T02:56:38;11.21;98.73
70166;SHT30;57541;47.408;18.822;2022-10-31T02:57:09;11.26;98.74
70166;SHT30;57541;47.408;18.822;2022-10-31T02:57:42;11.22;98.62
70166;SHT30;57541;47.408;18.822;2022-10-31T02:58:16;11.26;98.73
70166;SHT30;57541;47.408;18.822;2022-10-31T02:58:53;11.26;98.56
70166;SHT30;57541;47.408;18.822;2022-10-31T02:59:28;11.26;98.49
70166;SHT30;57541;47.408;18.822;2022-10-31T03:00:04;11.26;98.62
70166;SHT30;57541;47.408;18.822;2022-10-31T03:01:10;11.28;98.57
70166;SHT30;57541;47.408;18.822;2022-10-31T03:03:31;11.30;98.57
70166;SHT30;57541;47.408;18.822;2022-10-31T03:06:04;11.14;98.74
70166;SHT30;57541;47.408;18.822;2022-10-31T03:07:47;11.23;98.70
70166;SHT30;57541;47.408;18.822;2022-10-31T03:11:01;11.26;98.55
70166;SHT30;57541;47.408;18.822;2022-10-31T03:11:46;11.22;98.55
70166;SHT30;57541;47.408;18.822;2022-10-31T03:12:30;11.26;98.71
70166;SHT30;57541;47.408;18.822;2022-10-31T03:13:10;11.29;98.68
70166;SHT30;57541;47.408;18.822;2022-10-31T03:14:35;11.35;98.72
70166;SHT30;57541;47.408;18.822;2022-10-31T03:15:19;11.36;98.65
70166;SHT30;57541;47.408;18.822;2022-10-31T03:16:45;11.38;98.36
70166;SHT30;57541;47.408;18.822;2022-10-31T03:17:24;11.36;98.44
70166;SHT30;57541;47.408;18.822;2022-10-31T03:18:55;11.33;98.41
70166;SHT30;57541;47.408;18.822;2022-10-31T03:19:33;11.36;98.56
70166;SHT30;57541;47.408;18.822;2022-10-31T03:20:08;11.35;98.48
70166;SHT30;57541;47.408;18.822;2022-10-31T03:21:33;11.44;98.61
70166;SHT30;57541;47.408;18.822;2022-10-31T03:22:19;11.44;98.52
70166;SHT30;57541;47.408;18.822;2022-10-31T03:22:52;11.47;98.34
70166;SHT30;57541;47.408;18.822;2022-10-31T03:23:26;11.46;98.35
70166;SHT30;57541;47.408;18.822;2022-10-31T03:24:00;11.43;98.23
70166;SHT30;57541;47.408;18.822;2022-10-31T03:24:37;11.50;98.39
70166;SHT30;57541;47.408;18.822;2022-10-31T03:25:10;11.46;98.25
70166;SHT30;57541;47.408;18.822;2022-10-31T03:25:43;11.55;98.30
70166;SHT30;57541;47.408;18.822;2022-10-31T03:26:17;11.55;98.28
70166;SHT30;57541;47.408;18.822;2022-10-31T03:26:51;11.56;98.16
70166;SHT30;57541;47.408;18.822;2022-10-31T03:27:27;11.56;98.24
70166;SHT30;57541;47.408;18.822;2022-10-31T03:28:01;11.53;98.12
70166;SHT30;57541;47.408;18.822;2022-10-31T03:28:41;11.47;98.08
70166;SHT30;57541;47.408;18.822;2022-10-31T03:29:16;11.49;98.27
70166;SHT30;57541;47.408;18.822;2022-10-31T03:29:56;11.44;98.31
70166;SHT30;57541;47.408;18.822;2022-10-31T03:30:29;11.46;98.36
70166;SHT30;57541;47.408;18.822;2022-10-31T03:31:04;11.40;98.42
70166;SHT30;57541;47.408;18.822;2022-10-31T03:31:44;11.43;98.37
70166;SHT30;57541;47.408;18.822;2022-10-31T03:32:28;11.42;98.42
70166;SHT30;57541;47.408;18.822;2022-10-31T03:33:04;11.42;98.45
70166;SHT30;57541;47.408;18.822;2022-10-31T03:33:38;11.44;98.33
70166;SHT30;57541;47.408;18.822;2022-10-31T03:34:12;11.42;98.24
70166;SHT30;57541;47.408;18.822;2022-10-31T03:34:45;11.36;98.31
70166;SHT30;57541;47.408;18.822;2022-10-31T03:35:20;11.35;98.15
70166;SHT30;57541;47.408;18.822;2022-10-31T03:35:53;11.33;98.26
70166;SHT30;57541;47.408;18.822;2022-10-31T03:36:29;11.32;98.30
70166;SHT30;57541;47.408;18.822;2022-10-31T03:37:03;11.39;98.54
70166;SHT30;57541;47.408;18.822;2022-10-31T03:37:38;11.40;98.46
70166;SHT30;57541;47.408;18.822;2022-10-31T03:38:11;11.40;98.36
70166;SHT30;57541;47.408;18.822;2022-10-31T03:38:45;11.38;98.32
70166;SHT30;57541;47.408;18.822;2022-10-31T03:39:19;11.39;98.31
70166;SHT30;57541;47.408;18.822;2022-10-31T03:39:52;11.40;98.43
70166;SHT30;57541;47.408;18.822;2022-10-31T03:40:26;11.42;98.44
70166;SHT30;57541;47.408;18.822;2022-10-31T03:40:59;11.42;98.38
70166;SHT30;57541;47.408;18.822;2022-10-31T03:41:34;11.42;98.37
70166;SHT30;57541;47.408;18.822;2022-10-31T03:42:26;11.43;98.27
70166;SHT30;57541;47.408;18.822;2022-10-31T03:43:03;11.36;98.36
70166;SHT30;57541;47.408;18.822;2022-10-31T03:43:42;11.40;98.37
70166;SHT30;57541;47.408;18.822;2022-10-31T03:44:19;11.38;98.41
70166;SHT30;57541;47.408;18.822;2022-10-31T03:45:03;11.35;98.28
70166;SHT30;57541;47.408;18.822;2022-10-31T03:45:41;11.36;98.53
70166;SHT30;57541;47.408;18.822;2022-10-31T03:46:14;11.40;98.52
70166;SHT30;57541;47.408;18.822;2022-10-31T03:46:46;11.39;98.38
70166;SHT30;57541;47.408;18.822;2022-10-31T03:47:17;11.38;98.35
70166;SHT30;57541;47.408;18.822;2022-10-31T03:47:50;11.42;98.41
70166;SHT30;57541;47.408;18.822;2022-10-31T03:48:22;11.39;98.40
70166;SHT30;57541;47.408;18.822;2022-10-31T03:48:54;11.39;98.43
70166;SHT30;57541;47.408;18.822;2022-10-31T03:49:26;11.44;98.38
70166;SHT30;57541;47.408;18.822;2022-10-31T03:49:58;11.46;98.40
70166;SHT30;57541;47.408;18.822;2022-10-31T03:50:39;11.46;98.32
70166;SHT30;57541;47.408;18.822;2022-10-31T03:51:26;11.43;98.34
70166;SHT30;57541;47.408;18.822;2022-10-31T03:53:32;11.44;98.27
70166;SHT30;57541;47.408;18.822;2022-10-31T03:55:09;11.44;98.45
70166;SHT30;57541;47.408;18.822;2022-10-31T03:56:53;11.38;98.40
70166;SHT30;57541;47.408;18.822;2022-10-31T03:57:31;11.36;98.51
70166;SHT30;57541;47.408;18.822;2022-10-31T03:58:10;11.38;98.49
70166;SHT30;57541;47.408;18.822;2022-10-31T03:59:36;11.43;98.51
70166;SHT30;57541;47.408;18.822;2022-10-31T04:00:13;11.43;98.53
70166;SHT30;57541;47.408;18.822;2022-10-31T04:00:45;11.42;98.44
70166;SHT30;57541;47.408;18.822;2022-10-31T04:01:19;11.43;98.59
70166;SHT30;57541;47.408;18.822;2022-10-31T04:01:55;11.43;98.52
70166;SHT30;57541;47.408;18.822;2022-10-31T04:02:32;11.39;98.43
70166;SHT30;57541;47.408;18.822;2022-10-31T04:03:09;11.40;98.44
70166;SHT30;57541;47.408;18.822;2022-10-31T04:03:42;11.33;98.27
70166;SHT30;57541;47.408;18.822;2022-10-31T04:04:15;11.39;98.51
70166;SHT30;57541;47.408;18.822;2022-10-31T04:04:47;11.40;98.39
70166;SHT30;57541;47.408;18.822;2022-10-31T04:05:20;11.47;98.41
70166;SHT30;57541;47.408;18.822;2022-10-31T04:05:55;11.40;98.31
70166;SHT30;57541;47.408;18.822;2022-10-31T04:06:29;11.38;98.39
70166;SHT30;57541;47.408;18.822;2022-10-31T04:07:03;11.42;98.30
70166;SHT30;57541;47.408;18.822;2022-10-31T04:07:40;11.40;98.28
70166;SHT30;57541;47.408;18.822;2022-10-31T04:08:15;11.42;98.12
70166;SHT30;57541;47.408;18.822;2022-10-31T04:08:53;11.44;98.28
70166;SHT30;57541;47.408;18.822;2022-10-31T04:09:27;11.43;98.20
70166;SHT30;57541;47.408;18.822;2022-10-31T04:10:00;11.47;98.30
70166;SHT30;57541;47.408;18.822;2022-10-31T04:10:33;11.55;98.20